This is the latest recevied weather packets stored in our database for station/object W9WRP. If no packets are shown the sender has not sent any weather packets the latest 1 day(s).
| Time | Temp. | Humidity | Pressure | Rain* | Wind** | Luminosity | Snow |
|---|---|---|---|---|---|---|---|
| 1777990724 | 17.22° C | 44% | 1014 hPa | 0 mm | 0 m/s | 52 W/m² | - |
| 1777990422 | 17.22° C | 44% | 1013.8 hPa | 0 mm | 0 m/s | 59 W/m² | - |
| 1777990118 | 17.22° C | 45% | 1013.5 hPa | 0 mm | 0 m/s | 70 W/m² | - |
| 1777989815 | 16.67° C | 48% | 1013.5 hPa | 0 mm | 0 m/s | 83 W/m² | - |
| 1777989512 | 16.11° C | 50% | 1013.7 hPa | 0 mm | 0 m/s | 87 W/m² | - |
| 1777989208 | 15° C | 53% | 1013.6 hPa | 0 mm | 0 m/s | 75 W/m² | - |
| 1777988904 | 14.44° C | 57% | 1013.5 hPa | 0 mm | 0 m/s | 53 W/m² | - |
| 1777988601 | 14.44° C | 57% | 1013.5 hPa | 0 mm | 0 m/s | 33 W/m² | - |
| 1777988298 | 14.44° C | 57% | 1013.5 hPa | 0 mm | 0 m/s | 25 W/m² | - |
| 1777987995 | 14.44° C | 57% | 1013.6 hPa | 0 mm | 0 m/s | 21 W/m² | - |
| 1777987690 | 14.44° C | 57% | 1013.4 hPa | 0 mm | 0 m/s | 19 W/m² | - |
| 1777987388 | 14.44° C | 58% | 1013.3 hPa | 0 mm | 0 m/s | 18 W/m² | - |
| 1777987085 | 14.44° C | 58% | 1013.4 hPa | 0 mm | 0 m/s | 17 W/m² | - |
| 1777986782 | 14.44° C | 58% | 1013.6 hPa | 0 mm | 0 m/s | 17 W/m² | - |
| 1777986480 | 14.44° C | 58% | 1013.4 hPa | 0 mm | 0 m/s | 14 W/m² | - |
| 1777986185 | 14.44° C | 58% | 1013.3 hPa | 0 mm | 0 m/s | 12 W/m² | - |
| 1777985875 | 14.44° C | 58% | 1013.3 hPa | 0 mm | 0 m/s | 11 W/m² | - |
| 1777985572 | 14.44° C | 59% | 1013.4 hPa | 0 mm | 0 m/s | 8 W/m² | - |
| 1777985269 | 14.44° C | 59% | 1013.4 hPa | 0 mm | 0 m/s | 6 W/m² | - |
| 1777984965 | 14.44° C | 59% | 1013.1 hPa | 0 mm | 0 m/s | 4 W/m² | - |
| 1777984661 | 14.44° C | 59% | 1013.1 hPa | 0 mm | 0 m/s | 2 W/m² | - |
| 1777984358 | 15° C | 59% | 1013.1 hPa | 0 mm | 0 m/s | 1 W/m² | - |
| 1777984054 | 15° C | 58% | 1013.2 hPa | 0 mm | 0 m/s | 0 W/m² | - |
| 1777983752 | 15° C | 58% | 1012.9 hPa | 0 mm | 0 m/s | 0 W/m² | - |
| 1777983448 | 15° C | 58% | 1013.2 hPa | 0 mm | 0 m/s | 0 W/m² | - |
* Rain latest hour (hover to see other rain measurements)
** Current wind speed in m/s (hover to see current wind gust speed)